White Pigeon, Michigan
Current Conditions -  °F | °C
As of 10:35 AM on Saturday 20 Dec 2014 (Local Time) from KIRS Reporting Station
Haze Haze  
Wind Chill: 27°   Ceiling: 3300
Heat Index: 27°   Visibility: 5mi
Dew Point: 25°   Wind: 3mph
Humidity: 93%   Direction: 140°SE
Pressure: 30.28"   Gusts: NA
Location:  41.8°N, 85.64°W
Report Text: KIRS 201535Z AUTO 14003KT 5SM BR BKN033 M03/M04 A3028 RMK AO2
Loading
Personal Weather Stations






























Interactive Weather Map New forecast layout! Learn more

10-Day Weather Forecast

Advertisements
Track Severe Weather on mobile